Time;durP1;ratioP1;P1;durP2;ratioP2;P2;SDS_P1;SDS_P2;PMS_P1;PMS_P2;Temp;Humidity;BMP_temperature;BMP_pressure;BME280_temperature;BME280_humidity;BME280_pressure;Samples;Min_cycle;Max_cycle;Signal;HPM_P1;HPM_P2
2022/09/09 00:01:41;;;;;;;;;;;15.60;99.90;;;;;;5050251;28;20045;-71
2022/09/09 00:04:15;;;;;;;;;;;15.50;99.90;;;;;;5050711;28;19908;-70
2022/09/09 00:06:46;;;;;;;;;;;15.50;99.90;;;;;;5050791;28;19909;-71
2022/09/09 00:09:17;;;;;;;;;;;15.50;99.90;;;;;;5050773;28;19928;-69
2022/09/09 00:11:44;;;;;;;;;;;15.50;99.90;;;;;;5050766;28;19909;-72
2022/09/09 00:14:22;;;;;;;;;;;15.50;99.90;;;;;;5050772;28;20301;-72
2022/09/09 00:16:52;;;;;;;;;;;15.60;99.90;;;;;;5050029;28;19944;-71
2022/09/09 00:19:40;;;;;;;;;;;15.40;99.90;;;;;;5050337;28;20046;-71
2022/09/09 00:22:16;;;;;;;;;;;15.60;99.90;;;;;;5062752;28;19912;-70
2022/09/09 00:24:44;;;;;;;;;;;15.70;99.90;;;;;;5059600;28;20394;-70
2022/09/09 00:27:18;;;;;;;;;;;15.60;99.90;;;;;;5069145;28;19943;-70
2022/09/09 00:29:57;;;;;;;;;;;15.60;99.90;;;;;;5063622;28;19932;-69
2022/09/09 00:32:27;;;;;;;;;;;15.80;99.90;;;;;;5065309;28;20525;-70
2022/09/09 00:35:00;;;;;;;;;;;15.80;99.90;;;;;;5071451;28;20228;-69
2022/09/09 00:37:27;;;;;;;;;;;15.90;99.90;;;;;;5073597;28;19931;-69
2022/09/09 00:39:56;;;;;;;;;;;16.10;99.90;;;;;;5073788;28;19917;-69
2022/09/09 00:42:27;;;;;;;;;;;16.20;99.90;;;;;;5073977;28;20409;-71
2022/09/09 00:45:08;;;;;;;;;;;16.30;99.90;;;;;;5073860;28;19909;-74
2022/09/09 00:47:38;;;;;;;;;;;16.30;99.90;;;;;;5073915;28;19917;-69
2022/09/09 00:50:17;;;;;;;;;;;16.40;99.90;;;;;;5082962;28;19966;-68
2022/09/09 00:52:47;;;;;;;;;;;16.30;99.90;;;;;;5075410;28;20295;-69
2022/09/09 00:55:21;;;;;;;;;;;16.30;99.90;;;;;;5093886;28;19915;-70
2022/09/09 00:57:52;;;;;;;;;;;16.30;99.90;;;;;;5093955;28;19912;-69
2022/09/09 01:00:41;;;;;;;;;;;16.30;99.90;;;;;;5076884;28;19923;-70
2022/09/09 01:03:08;;;;;;;;;;;16.30;99.90;;;;;;5055725;28;19908;-69
2022/09/09 01:05:47;;;;;;;;;;;16.40;99.90;;;;;;5073498;28;19908;-70
2022/09/09 01:08:33;;;;;;;;;;;16.30;99.90;;;;;;5072659;28;19920;-69
2022/09/09 01:11:00;;;;;;;;;;;16.30;99.90;;;;;;5073170;28;19994;-69
2022/09/09 01:13:31;;;;;;;;;;;16.30;99.90;;;;;;5073427;28;20004;-69
2022/09/09 01:16:02;;;;;;;;;;;16.30;99.90;;;;;;5087382;28;19916;-70
2022/09/09 01:18:37;;;;;;;;;;;16.40;99.90;;;;;;5072731;28;19920;-71
2022/09/09 01:21:04;;;;;;;;;;;16.50;99.90;;;;;;5072272;28;19913;-69
2022/09/09 01:23:39;;;;;;;;;;;16.60;99.90;;;;;;5072783;28;19916;-68
2022/09/09 01:26:16;;;;;;;;;;;16.70;99.90;;;;;;5072646;28;20388;-71
2022/09/09 01:28:54;;;;;;;;;;;16.80;99.90;;;;;;5090694;28;20035;-71
2022/09/09 01:31:33;;;;;;;;;;;16.90;99.90;;;;;;5092795;28;19908;-69
2022/09/09 01:33:59;;;;;;;;;;;16.90;99.90;;;;;;5092994;28;19922;-70
2022/09/09 01:36:35;;;;;;;;;;;17.00;99.90;;;;;;5093004;28;20387;-69
2022/09/09 01:39:02;;;;;;;;;;;17.10;99.90;;;;;;5086173;28;19923;-70
2022/09/09 01:41:28;;;;;;;;;;;17.20;99.90;;;;;;5077923;28;20284;-70
2022/09/09 01:43:55;;;;;;;;;;;17.30;99.90;;;;;;5072521;28;19908;-69
2022/09/09 01:46:23;;;;;;;;;;;17.30;99.90;;;;;;5071372;28;20007;-69
2022/09/09 01:49:07;;;;;;;;;;;17.30;99.90;;;;;;5072233;28;20444;-71
2022/09/09 01:51:52;;;;;;;;;;;17.30;99.90;;;;;;5072781;28;19935;-70
2022/09/09 01:54:22;;;;;;;;;;;17.30;99.90;;;;;;5072859;28;19912;-70
2022/09/09 01:57:12;;;;;;;;;;;17.40;99.90;;;;;;5069296;28;19995;-71
2022/09/09 01:59:39;;;;;;;;;;;17.50;99.90;;;;;;5051775;28;19912;-70
2022/09/09 02:02:23;;;;;;;;;;;17.80;99.90;;;;;;5067674;28;20021;-70
2022/09/09 02:04:57;;;;;;;;;;;17.80;99.90;;;;;;5070037;28;19917;-71
2022/09/09 02:07:40;;;;;;;;;;;18.10;99.90;;;;;;5071041;28;19927;-71
2022/09/09 02:10:07;;;;;;;;;;;18.30;99.90;;;;;;5058578;28;19919;-70
2022/09/09 02:12:40;;;;;;;;;;;18.40;99.90;;;;;;5064603;28;20210;-72
2022/09/09 02:15:14;;;;;;;;;;;18.80;99.90;;;;;;5069195;28;20336;-72
2022/09/09 02:17:42;;;;;;;;;;;19.10;99.90;;;;;;5068002;28;20274;-69
2022/09/09 02:20:12;;;;;;;;;;;19.30;99.90;;;;;;5068190;28;19939;-71
2022/09/09 02:22:42;;;;;;;;;;;19.40;99.90;;;;;;5068727;28;19977;-69
2022/09/09 02:25:10;;;;;;;;;;;19.50;99.90;;;;;;5069510;28;19916;-70
2022/09/09 02:27:37;;;;;;;;;;;19.70;99.90;;;;;;5070392;28;20044;-71
2022/09/09 02:30:04;;;;;;;;;;;19.90;99.90;;;;;;5086325;28;19912;-69
2022/09/09 02:32:32;;;;;;;;;;;20.30;99.90;;;;;;5090825;28;20322;-72
2022/09/09 02:35:11;;;;;;;;;;;20.40;99.90;;;;;;5091701;28;19915;-70
2022/09/09 02:37:39;;;;;;;;;;;20.40;99.90;;;;;;5091779;28;19930;-70
2022/09/09 02:40:06;;;;;;;;;;;20.40;99.90;;;;;;5091059;28;19908;-68
2022/09/09 02:42:38;;;;;;;;;;;20.50;99.90;;;;;;5092073;28;19931;-71
2022/09/09 02:45:05;;;;;;;;;;;20.40;99.90;;;;;;5091992;28;19908;-70
2022/09/09 02:47:36;;;;;;;;;;;20.40;99.90;;;;;;5091973;28;19952;-69
2022/09/09 02:50:03;;;;;;;;;;;20.40;99.90;;;;;;5091994;28;19915;-69
2022/09/09 02:52:59;;;;;;;;;;;20.50;99.90;;;;;;5091639;28;19953;-71
2022/09/09 02:55:44;;;;;;;;;;;20.60;99.90;;;;;;5078832;28;19915;-70
2022/09/09 02:58:12;;;;;;;;;;;20.60;99.90;;;;;;5072885;28;19958;-69
2022/09/09 03:00:39;;;;;;;;;;;20.60;99.90;;;;;;5073314;28;19912;-72
2022/09/09 03:03:08;;;;;;;;;;;20.70;99.90;;;;;;5091610;28;19908;-71
2022/09/09 03:05:35;;;;;;;;;;;20.80;99.90;;;;;;5091603;28;20268;-71
2022/09/09 03:08:03;;;;;;;;;;;20.80;99.90;;;;;;5091333;28;19923;-71
2022/09/09 03:10:30;;;;;;;;;;;20.80;99.90;;;;;;5073035;28;19912;-69
2022/09/09 03:12:56;;;;;;;;;;;20.80;99.90;;;;;;5091220;28;19930;-70
2022/09/09 03:15:23;;;;;;;;;;;20.90;99.60;;;;;;5091248;28;19908;-69
2022/09/09 03:17:50;;;;;;;;;;;21.00;99.60;;;;;;5091540;28;19920;-70
2022/09/09 03:20:17;;;;;;;;;;;20.90;99.70;;;;;;5091625;28;19908;-71
2022/09/09 03:22:44;;;;;;;;;;;21.20;99.30;;;;;;5091421;28;19961;-69
2022/09/09 03:25:11;;;;;;;;;;;21.50;99.10;;;;;;5091179;28;20007;-71
2022/09/09 03:27:38;;;;;;;;;;;21.60;99.00;;;;;;5091303;28;20376;-69
2022/09/09 03:30:05;;;;;;;;;;;21.70;98.80;;;;;;5091703;28;19916;-70
2022/09/09 03:32:31;;;;;;;;;;;21.60;98.10;;;;;;5091448;28;19912;-70
2022/09/09 03:34:58;;;;;;;;;;;21.70;99.20;;;;;;5091302;28;20309;-72
2022/09/09 03:37:25;;;;;;;;;;;21.70;97.90;;;;;;5091966;28;19908;-69
2022/09/09 03:39:54;;;;;;;;;;;21.50;98.00;;;;;;5091350;28;19938;-73
2022/09/09 03:42:21;;;;;;;;;;;21.40;98.70;;;;;;5091029;28;20344;-72
2022/09/09 03:44:50;;;;;;;;;;;21.40;98.90;;;;;;5091115;28;19916;-70
2022/09/09 03:47:18;;;;;;;;;;;21.30;99.20;;;;;;5091444;28;19916;-71
2022/09/09 03:49:45;;;;;;;;;;;21.30;98.90;;;;;;5091369;28;19908;-71
2022/09/09 03:52:12;;;;;;;;;;;21.40;99.10;;;;;;5090491;28;20471;-69
2022/09/09 03:54:39;;;;;;;;;;;21.40;99.30;;;;;;5090875;28;20376;-68
2022/09/09 03:57:06;;;;;;;;;;;21.50;99.00;;;;;;5090635;28;19908;-70
2022/09/09 03:59:32;;;;;;;;;;;21.70;99.10;;;;;;5090461;28;19912;-71
2022/09/09 04:01:59;;;;;;;;;;;21.80;98.10;;;;;;5090999;28;20356;-70
2022/09/09 04:04:26;;;;;;;;;;;22.00;98.10;;;;;;5090626;28;20018;-72
2022/09/09 04:06:53;;;;;;;;;;;22.40;99.20;;;;;;5090701;28;20434;-70
2022/09/09 04:09:20;;;;;;;;;;;22.70;97.70;;;;;;5091671;28;19912;-70
2022/09/09 04:11:47;;;;;;;;;;;22.90;97.90;;;;;;5094938;28;19909;-70
2022/09/09 04:14:13;;;;;;;;;;;23.40;96.00;;;;;;5095119;28;20720;-70
2022/09/09 04:16:42;;;;;;;;;;;23.90;96.70;;;;;;5094519;28;20341;-70
2022/09/09 04:19:12;;;;;;;;;;;24.70;95.80;;;;;;5094560;28;20003;-71
2022/09/09 04:21:39;;;;;;;;;;;25.50;94.50;;;;;;5094454;28;19931;-70
2022/09/09 04:24:06;;;;;;;;;;;25.40;92.60;;;;;;5094299;28;19915;-70
2022/09/09 04:26:34;;;;;;;;;;;25.10;92.10;;;;;;5094784;28;20278;-69
2022/09/09 04:29:01;;;;;;;;;;;24.20;92.90;;;;;;5094863;28;19941;-71
2022/09/09 04:31:27;;;;;;;;;;;23.70;93.30;;;;;;5094572;28;19909;-71
2022/09/09 04:33:54;;;;;;;;;;;23.80;94.40;;;;;;5094289;28;20475;-71
2022/09/09 04:36:21;;;;;;;;;;;24.60;93.80;;;;;;5094660;28;19915;-70
2022/09/09 04:38:48;;;;;;;;;;;25.40;92.50;;;;;;5094293;28;20288;-70
2022/09/09 04:41:16;;;;;;;;;;;25.50;91.60;;;;;;5094104;28;20714;-72
2022/09/09 04:43:43;;;;;;;;;;;25.40;92.00;;;;;;5094284;28;19929;-71
2022/09/09 04:46:10;;;;;;;;;;;25.90;91.10;;;;;;5094368;28;19909;-71
2022/09/09 04:48:36;;;;;;;;;;;26.30;90.00;;;;;;5094082;28;19916;-72
2022/09/09 04:51:04;;;;;;;;;;;26.80;88.80;;;;;;5093939;28;19916;-70
2022/09/09 04:53:33;;;;;;;;;;;27.00;90.00;;;;;;5094053;28;20359;-71
2022/09/09 04:56:06;;;;;;;;;;;27.30;88.20;;;;;;5093929;28;19947;-71
2022/09/09 04:58:33;;;;;;;;;;;27.30;85.00;;;;;;5093802;28;19962;-69
2022/09/09 05:01:04;;;;;;;;;;;26.70;86.80;;;;;;5093964;28;19909;-69
2022/09/09 05:03:30;;;;;;;;;;;26.90;86.70;;;;;;5094149;28;19912;-70
2022/09/09 05:06:04;;;;;;;;;;;27.20;84.80;;;;;;5093837;28;19961;-72
2022/09/09 05:08:31;;;;;;;;;;;27.80;85.00;;;;;;5093560;28;20007;-71
2022/09/09 05:10:59;;;;;;;;;;;28.10;83.00;;;;;;5093608;28;20108;-72
2022/09/09 05:13:27;;;;;;;;;;;28.50;82.70;;;;;;5073692;28;19912;-70
2022/09/09 05:15:54;;;;;;;;;;;27.90;82.10;;;;;;5073211;28;19958;-69
2022/09/09 05:18:22;;;;;;;;;;;27.00;83.80;;;;;;5073347;28;19924;-70
2022/09/09 05:20:50;;;;;;;;;;;26.40;86.50;;;;;;5072463;28;19938;-71
2022/09/09 05:23:17;;;;;;;;;;;25.60;87.90;;;;;;5072182;28;20008;-69
2022/09/09 05:25:46;;;;;;;;;;;24.60;90.50;;;;;;5072654;28;19919;-71
2022/09/09 05:28:13;;;;;;;;;;;23.80;91.90;;;;;;5072439;28;20345;-70
2022/09/09 05:30:39;;;;;;;;;;;23.20;91.80;;;;;;5073096;28;19956;-70
2022/09/09 05:33:06;;;;;;;;;;;22.60;92.90;;;;;;5073107;28;19909;-71
2022/09/09 05:35:33;;;;;;;;;;;22.30;93.40;;;;;;5072774;28;20022;-71
2022/09/09 05:38:00;;;;;;;;;;;22.10;94.40;;;;;;5067368;28;19912;-70
2022/09/09 05:40:27;;;;;;;;;;;21.90;94.50;;;;;;5071210;28;20007;-69
2022/09/09 05:42:53;;;;;;;;;;;21.80;94.80;;;;;;5072962;28;19961;-69
2022/09/09 05:45:20;;;;;;;;;;;21.70;94.90;;;;;;5073066;28;19912;-69
2022/09/09 05:47:52;;;;;;;;;;;21.50;95.20;;;;;;5072136;28;20022;-69
2022/09/09 05:50:19;;;;;;;;;;;21.30;95.90;;;;;;5072700;28;19919;-70
2022/09/09 05:52:46;;;;;;;;;;;21.30;96.80;;;;;;5070844;28;19909;-70
2022/09/09 05:55:12;;;;;;;;;;;21.20;97.70;;;;;;5071718;28;20003;-69
2022/09/09 05:57:39;;;;;;;;;;;21.20;98.40;;;;;;5072234;28;19909;-70
2022/09/09 06:00:06;;;;;;;;;;;21.00;98.90;;;;;;5072418;28;19935;-70
2022/09/09 06:02:32;;;;;;;;;;;20.90;99.00;;;;;;5072391;28;19909;-70
2022/09/09 06:04:59;;;;;;;;;;;20.60;95.70;;;;;;5072515;28;19954;-71
2022/09/09 06:07:26;;;;;;;;;;;20.50;95.50;;;;;;5072079;28;19999;-70
2022/09/09 06:09:52;;;;;;;;;;;20.50;95.60;;;;;;5071597;28;20297;-69
2022/09/09 06:12:20;;;;;;;;;;;21.10;95.20;;;;;;5072347;28;19966;-70
2022/09/09 06:14:47;;;;;;;;;;;21.90;93.00;;;;;;5071894;28;19962;-72
2022/09/09 06:17:13;;;;;;;;;;;22.30;92.30;;;;;;5070273;28;19924;-71
2022/09/09 06:19:40;;;;;;;;;;;23.00;92.50;;;;;;5070110;28;19915;-71
2022/09/09 06:22:07;;;;;;;;;;;23.80;91.90;;;;;;5069805;28;19908;-70
2022/09/09 06:24:33;;;;;;;;;;;24.30;93.50;;;;;;5068371;28;19978;-71
2022/09/09 06:27:00;;;;;;;;;;;25.10;94.10;;;;;;5071323;28;19957;-70
2022/09/09 06:29:26;;;;;;;;;;;25.30;94.10;;;;;;5069876;28;19940;-68
2022/09/09 06:31:53;;;;;;;;;;;24.90;93.30;;;;;;5069315;28;19942;-69
2022/09/09 06:34:20;;;;;;;;;;;24.30;94.30;;;;;;5069624;28;19920;-70
2022/09/09 06:36:47;;;;;;;;;;;23.60;95.30;;;;;;5070938;28;19988;-71
2022/09/09 06:39:15;;;;;;;;;;;23.00;96.30;;;;;;5058669;28;19913;-69
2022/09/09 06:41:42;;;;;;;;;;;22.40;97.20;;;;;;5057349;28;20372;-70
2022/09/09 06:44:11;;;;;;;;;;;22.10;97.90;;;;;;5060942;28;20279;-70
2022/09/09 06:46:37;;;;;;;;;;;22.30;97.80;;;;;;5058436;28;19909;-67
2022/09/09 06:49:04;;;;;;;;;;;22.30;98.00;;;;;;5070981;28;19986;-71
2022/09/09 06:51:32;;;;;;;;;;;22.20;98.30;;;;;;5069479;28;19927;-69
2022/09/09 06:53:59;;;;;;;;;;;22.20;98.00;;;;;;5069871;28;19912;-70
2022/09/09 06:56:27;;;;;;;;;;;22.00;97.70;;;;;;5068541;28;19908;-68
2022/09/09 06:58:55;;;;;;;;;;;21.70;98.20;;;;;;5056864;28;19916;-70
2022/09/09 07:01:26;;;;;;;;;;;21.30;98.40;;;;;;5059556;28;20040;-70
2022/09/09 07:03:54;;;;;;;;;;;20.90;99.30;;;;;;5058255;28;20296;-69
2022/09/09 07:06:24;;;;;;;;;;;20.60;99.90;;;;;;5058103;28;20328;-69
2022/09/09 07:08:52;;;;;;;;;;;20.40;99.90;;;;;;5058831;28;20375;-70
2022/09/09 07:11:20;;;;;;;;;;;20.10;99.90;;;;;;5059221;28;19924;-69
2022/09/09 07:13:47;;;;;;;;;;;19.90;99.90;;;;;;5057775;28;19935;-70
2022/09/09 07:16:16;;;;;;;;;;;19.80;99.90;;;;;;5059303;28;19924;-69
2022/09/09 07:18:43;;;;;;;;;;;19.70;99.90;;;;;;5057680;28;20034;-69
2022/09/09 07:21:11;;;;;;;;;;;19.50;99.90;;;;;;5060607;28;20331;-69
2022/09/09 07:23:39;;;;;;;;;;;19.40;99.90;;;;;;5058916;28;19912;-69
2022/09/09 07:26:10;;;;;;;;;;;19.20;99.90;;;;;;5060357;28;20319;-72
2022/09/09 07:28:37;;;;;;;;;;;19.20;99.90;;;;;;5059032;28;19917;-71
2022/09/09 07:31:04;;;;;;;;;;;19.00;99.90;;;;;;5058153;28;19916;-70
2022/09/09 07:33:31;;;;;;;;;;;18.90;99.90;;;;;;5059040;28;19912;-70
2022/09/09 07:36:05;;;;;;;;;;;18.90;99.90;;;;;;5061650;28;19921;-69
2022/09/09 07:38:32;;;;;;;;;;;18.80;99.90;;;;;;5060763;28;20311;-72
2022/09/09 07:41:06;;;;;;;;;;;18.70;99.90;;;;;;5062742;28;19909;-70
2022/09/09 07:43:33;;;;;;;;;;;18.60;99.90;;;;;;5060555;28;20047;-71
2022/09/09 07:46:03;;;;;;;;;;;18.50;99.90;;;;;;5057140;28;19927;-70
2022/09/09 07:48:30;;;;;;;;;;;18.40;99.90;;;;;;5058589;28;19917;-71
2022/09/09 07:51:06;;;;;;;;;;;18.30;99.90;;;;;;5061402;28;19917;-70
2022/09/09 07:53:35;;;;;;;;;;;18.20;99.90;;;;;;5058879;28;19965;-70
2022/09/09 07:56:09;;;;;;;;;;;18.10;99.90;;;;;;5059454;28;19920;-72
2022/09/09 07:58:39;;;;;;;;;;;18.00;99.90;;;;;;5059812;28;19909;-70
2022/09/09 08:01:11;;;;;;;;;;;17.90;99.90;;;;;;5059523;28;19912;-68
2022/09/09 08:03:38;;;;;;;;;;;17.80;99.90;;;;;;5057447;28;20004;-67
2022/09/09 08:06:06;;;;;;;;;;;17.80;99.90;;;;;;5061781;28;19999;-68
2022/09/09 08:08:33;;;;;;;;;;;17.80;99.90;;;;;;5059694;28;19986;-70
2022/09/09 08:11:05;;;;;;;;;;;17.70;99.90;;;;;;5059214;28;20105;-69
2022/09/09 08:13:31;;;;;;;;;;;17.60;99.90;;;;;;5041011;28;19913;-68
2022/09/09 08:16:05;;;;;;;;;;;17.60;99.90;;;;;;5057616;28;19941;-69
2022/09/09 08:18:32;;;;;;;;;;;17.60;99.90;;;;;;5056863;28;19927;-70
2022/09/09 08:21:05;;;;;;;;;;;17.50;99.90;;;;;;5058886;28;19923;-71
2022/09/09 08:23:32;;;;;;;;;;;17.50;99.90;;;;;;5056964;28;19905;-70
2022/09/09 08:26:15;;;;;;;;;;;17.40;99.90;;;;;;5058709;28;20035;-70
2022/09/09 08:28:42;;;;;;;;;;;17.40;99.90;;;;;;5058664;28;20016;-68
2022/09/09 08:31:10;;;;;;;;;;;17.40;99.90;;;;;;5060056;28;19917;-70
2022/09/09 08:33:38;;;;;;;;;;;17.40;99.90;;;;;;5062450;28;20022;-68
2022/09/09 08:36:06;;;;;;;;;;;17.40;99.90;;;;;;5059551;28;19916;-67
2022/09/09 08:38:33;;;;;;;;;;;17.30;99.90;;;;;;5058063;28;19912;-69
2022/09/09 08:41:21;;;;;;;;;;;17.30;99.90;;;;;;5058339;28;20008;-72
2022/09/09 08:43:48;;;;;;;;;;;17.30;99.90;;;;;;5046405;28;19916;-69
2022/09/09 08:46:26;;;;;;;;;;;17.30;99.90;;;;;;5061144;28;19966;-71
2022/09/09 08:48:58;;;;;;;;;;;17.30;99.90;;;;;;5058513;28;19926;-70
2022/09/09 08:51:26;;;;;;;;;;;17.30;99.90;;;;;;5061621;28;20262;-72
2022/09/09 08:53:54;;;;;;;;;;;17.20;99.90;;;;;;5056153;28;20011;-68
2022/09/09 08:56:25;;;;;;;;;;;17.10;99.90;;;;;;5058843;28;20335;-68
2022/09/09 08:58:53;;;;;;;;;;;17.10;99.90;;;;;;5046436;28;19999;-69
2022/09/09 09:01:22;;;;;;;;;;;17.10;99.90;;;;;;5062547;28;19998;-72
2022/09/09 09:04:08;;;;;;;;;;;17.10;99.90;;;;;;5061549;28;19978;-74
2022/09/09 09:06:36;;;;;;;;;;;17.10;99.90;;;;;;5062202;28;20022;-70
2022/09/09 09:09:24;;;;;;;;;;;17.00;99.90;;;;;;5062274;28;20387;-69
2022/09/09 09:11:53;;;;;;;;;;;17.00;99.90;;;;;;5061171;28;20361;-70
2022/09/09 09:14:24;;;;;;;;;;;17.00;99.90;;;;;;5062844;28;19951;-71
2022/09/09 09:16:57;;;;;;;;;;;17.00;99.90;;;;;;5047166;28;20341;-71
2022/09/09 09:19:26;;;;;;;;;;;16.90;99.90;;;;;;5058722;28;19917;-72
2022/09/09 09:22:04;;;;;;;;;;;16.90;99.90;;;;;;5062351;28;20008;-69
2022/09/09 09:24:46;;;;;;;;;;;16.90;99.90;;;;;;5062602;28;19953;-70
2022/09/09 09:27:14;;;;;;;;;;;16.80;99.90;;;;;;5062122;28;19943;-68
2022/09/09 09:29:43;;;;;;;;;;;16.80;99.90;;;;;;5059487;28;20059;-71
2022/09/09 09:32:16;;;;;;;;;;;16.70;99.90;;;;;;5061817;28;20031;-70
2022/09/09 09:34:48;;;;;;;;;;;16.70;99.90;;;;;;5062164;28;19908;-68
2022/09/09 09:37:27;;;;;;;;;;;16.80;99.90;;;;;;5064225;28;19909;-70
2022/09/09 09:39:54;;;;;;;;;;;16.70;99.90;;;;;;5063492;28;19954;-71
2022/09/09 09:42:21;;;;;;;;;;;16.80;99.90;;;;;;5060898;28;19924;-71
2022/09/09 09:44:47;;;;;;;;;;;16.70;99.90;;;;;;5061348;28;19912;-70
2022/09/09 09:47:15;;;;;;;;;;;16.70;99.90;;;;;;5060950;28;19923;-70
2022/09/09 09:49:55;;;;;;;;;;;16.70;99.90;;;;;;5060160;28;19912;-71
2022/09/09 09:52:25;;;;;;;;;;;16.70;99.90;;;;;;5062554;28;19920;-71
2022/09/09 09:54:53;;;;;;;;;;;16.60;99.90;;;;;;5060359;28;19959;-73
2022/09/09 09:57:24;;;;;;;;;;;16.60;99.90;;;;;;5061045;28;20369;-71
2022/09/09 10:00:01;;;;;;;;;;;16.60;99.90;;;;;;5060030;28;19913;-71
2022/09/09 10:02:43;;;;;;;;;;;16.60;99.90;;;;;;5061506;28;19967;-72
2022/09/09 10:05:14;;;;;;;;;;;16.60;99.90;;;;;;5061294;28;20377;-71
2022/09/09 10:07:43;;;;;;;;;;;16.60;99.90;;;;;;5059711;28;19917;-72
2022/09/09 10:10:13;;;;;;;;;;;16.60;99.90;;;;;;5060942;28;20045;-71
2022/09/09 10:12:54;;;;;;;;;;;16.60;99.90;;;;;;5060633;28;19912;-72
2022/09/09 10:15:24;;;;;;;;;;;16.50;99.90;;;;;;5062851;28;19915;-70
2022/09/09 10:17:59;;;;;;;;;;;16.50;99.90;;;;;;5059128;28;19920;-71
2022/09/09 10:20:25;;;;;;;;;;;16.50;99.90;;;;;;5060689;28;19908;-69
2022/09/09 10:22:52;;;;;;;;;;;16.50;99.90;;;;;;5061173;28;20434;-69
2022/09/09 10:25:28;;;;;;;;;;;16.50;99.90;;;;;;5060266;28;19916;-73
2022/09/09 10:28:07;;;;;;;;;;;16.50;99.90;;;;;;5059744;28;20012;-70
2022/09/09 10:30:36;;;;;;;;;;;16.40;99.90;;;;;;5060833;28;19915;-71
2022/09/09 10:33:03;;;;;;;;;;;16.40;99.90;;;;;;5060924;28;19956;-72
2022/09/09 10:35:33;;;;;;;;;;;16.40;99.90;;;;;;5062205;28;19908;-72
2022/09/09 10:38:17;;;;;;;;;;;16.40;99.90;;;;;;5060964;28;19983;-70
2022/09/09 10:40:59;;;;;;;;;;;16.40;99.90;;;;;;5061818;28;19916;-70
2022/09/09 10:43:31;;;;;;;;;;;16.40;99.90;;;;;;5060099;28;19924;-69
2022/09/09 10:46:03;;;;;;;;;;;16.40;99.90;;;;;;5060047;28;19916;-70
2022/09/09 10:48:30;;;;;;;;;;;16.30;99.90;;;;;;5058908;28;19990;-69
2022/09/09 10:51:05;;;;;;;;;;;16.30;99.90;;;;;;5059347;28;19928;-71
2022/09/09 10:53:52;;;;;;;;;;;16.40;99.90;;;;;;5059175;28;19908;-72
2022/09/09 10:56:20;;;;;;;;;;;16.40;99.90;;;;;;5061456;28;19912;-70
2022/09/09 10:58:47;;;;;;;;;;;16.30;99.90;;;;;;5058249;28;19995;-71
2022/09/09 11:01:23;;;;;;;;;;;16.30;99.90;;;;;;5058741;28;19940;-69
2022/09/09 11:03:53;;;;;;;;;;;16.30;99.90;;;;;;5059557;28;19915;-72
2022/09/09 11:06:21;;;;;;;;;;;16.20;99.90;;;;;;5059651;28;20387;-71
2022/09/09 11:08:49;;;;;;;;;;;16.20;99.90;;;;;;5057857;28;19939;-73
2022/09/09 11:11:22;;;;;;;;;;;16.20;99.90;;;;;;5058690;28;19935;-71
2022/09/09 11:13:48;;;;;;;;;;;16.20;99.90;;;;;;5059865;28;20012;-70
2022/09/09 11:16:34;;;;;;;;;;;16.20;99.90;;;;;;5059492;28;19995;-71
2022/09/09 11:19:12;;;;;;;;;;;16.20;99.90;;;;;;5060364;28;19921;-72
2022/09/09 11:21:41;;;;;;;;;;;16.10;99.90;;;;;;5058965;28;19974;-72
2022/09/09 11:24:19;;;;;;;;;;;16.20;99.90;;;;;;5057700;28;19913;-70
2022/09/09 11:26:49;;;;;;;;;;;16.10;99.90;;;;;;5057759;28;19932;-71
2022/09/09 11:29:36;;;;;;;;;;;16.20;99.90;;;;;;5058401;28;20006;-71
2022/09/09 11:32:09;;;;;;;;;;;16.20;99.90;;;;;;5061469;28;20327;-71
2022/09/09 11:34:39;;;;;;;;;;;16.20;99.90;;;;;;5059981;28;20019;-70
2022/09/09 11:37:21;;;;;;;;;;;16.20;99.90;;;;;;5059871;28;19999;-72
2022/09/09 11:39:57;;;;;;;;;;;16.20;99.90;;;;;;5059623;28;19924;-70
2022/09/09 11:42:24;;;;;;;;;;;16.20;99.90;;;;;;5059572;28;20230;-71
2022/09/09 11:44:57;;;;;;;;;;;16.20;99.90;;;;;;5048844;28;19913;-72
2022/09/09 11:47:29;;;;;;;;;;;16.20;99.90;;;;;;5068416;28;19921;-69
2022/09/09 11:50:07;;;;;;;;;;;16.20;99.90;;;;;;5051689;28;20656;-69
2022/09/09 11:52:38;;;;;;;;;;;16.20;99.90;;;;;;5069901;28;19909;-71
2022/09/09 11:55:25;;;;;;;;;;;16.20;99.90;;;;;;5070544;28;19940;-70
2022/09/09 11:58:02;;;;;;;;;;;16.20;99.90;;;;;;5070047;28;19908;-71
2022/09/09 12:00:37;;;;;;;;;;;16.20;99.90;;;;;;5070099;28;19954;-71
2022/09/09 12:03:23;;;;;;;;;;;16.20;99.90;;;;;;5064459;28;19931;-71
2022/09/09 12:05:51;;;;;;;;;;;16.30;99.90;;;;;;5067976;28;20366;-69
2022/09/09 12:08:24;;;;;;;;;;;16.20;99.90;;;;;;5069935;28;19923;-69
2022/09/09 12:10:56;;;;;;;;;;;16.30;99.90;;;;;;5069773;28;21605;-70
2022/09/09 12:13:24;;;;;;;;;;;16.30;99.90;;;;;;5069411;28;19919;-69
2022/09/09 12:15:53;;;;;;;;;;;16.30;99.90;;;;;;5056379;28;20008;-72
2022/09/09 12:18:25;;;;;;;;;;;16.20;99.90;;;;;;5055214;28;19932;-71
2022/09/09 12:21:05;;;;;;;;;;;16.30;99.90;;;;;;5059479;28;19964;-70
2022/09/09 12:23:31;;;;;;;;;;;16.30;99.90;;;;;;5056151;28;19913;-69
2022/09/09 12:25:58;;;;;;;;;;;16.30;99.90;;;;;;5059659;28;19946;-71
2022/09/09 12:28:47;;;;;;;;;;;16.40;99.90;;;;;;5059495;28;19932;-70
2022/09/09 12:31:17;;;;;;;;;;;16.00;99.90;;;;;;5060673;28;19913;-71
2022/09/09 12:33:47;;;;;;;;;;;16.30;99.90;;;;;;5063078;28;19999;-68
2022/09/09 12:36:16;;;;;;;;;;;16.20;99.90;;;;;;5061601;28;19935;-71
2022/09/09 12:38:43;;;;;;;;;;;16.20;99.90;;;;;;5061806;28;19950;-71
2022/09/09 12:41:25;;;;;;;;;;;16.20;99.90;;;;;;5063033;28;19971;-71
2022/09/09 12:44:03;;;;;;;;;;;16.10;99.90;;;;;;5060591;28;19955;-73
2022/09/09 12:46:31;;;;;;;;;;;16.20;99.90;;;;;;5053707;28;19999;-70
2022/09/09 12:48:57;;;;;;;;;;;16.20;99.90;;;;;;5053240;28;19923;-75
2022/09/09 12:51:26;;;;;;;;;;;16.20;99.90;;;;;;5067920;28;20008;-71
2022/09/09 12:53:53;;;;;;;;;;;16.30;99.90;;;;;;5073278;28;19936;-69
2022/09/09 12:56:21;;;;;;;;;;;16.20;99.90;;;;;;5073974;28;20292;-70
2022/09/09 12:58:51;;;;;;;;;;;16.20;99.90;;;;;;5073294;28;19920;-70
2022/09/09 13:01:28;;;;;;;;;;;16.20;99.90;;;;;;5073274;28;20380;-71
2022/09/09 13:03:55;;;;;;;;;;;16.30;99.90;;;;;;5073148;28;19908;-73
2022/09/09 13:06:23;;;;;;;;;;;16.30;99.90;;;;;;5071745;28;19912;-71
2022/09/09 13:08:50;;;;;;;;;;;16.40;99.90;;;;;;5072853;28;20280;-70
2022/09/09 13:11:20;;;;;;;;;;;16.40;99.90;;;;;;5072754;28;19919;-71
2022/09/09 13:13:56;;;;;;;;;;;16.40;99.90;;;;;;5073167;28;20284;-70
2022/09/09 13:16:26;;;;;;;;;;;16.30;99.90;;;;;;5073147;28;19913;-71
2022/09/09 13:18:53;;;;;;;;;;;16.30;99.90;;;;;;5073101;28;19912;-72
2022/09/09 13:21:20;;;;;;;;;;;16.30;99.90;;;;;;5073039;28;19932;-72
2022/09/09 13:23:52;;;;;;;;;;;16.40;99.90;;;;;;5072802;28;19967;-75
2022/09/09 13:26:23;;;;;;;;;;;16.40;99.90;;;;;;5073050;28;19947;-73
2022/09/09 13:28:50;;;;;;;;;;;16.40;99.90;;;;;;5072840;28;20333;-70
2022/09/09 13:31:21;;;;;;;;;;;16.40;99.90;;;;;;5073288;28;19934;-70
2022/09/09 13:33:48;;;;;;;;;;;16.40;99.90;;;;;;5073587;28;20102;-70
2022/09/09 13:36:15;;;;;;;;;;;16.40;99.90;;;;;;5072944;28;19937;-69
2022/09/09 13:38:41;;;;;;;;;;;16.40;99.90;;;;;;5073043;28;19912;-71
2022/09/09 13:41:09;;;;;;;;;;;16.30;99.90;;;;;;5073001;28;19913;-72
2022/09/09 13:43:43;;;;;;;;;;;16.30;99.90;;;;;;5073091;28;19943;-71
2022/09/09 13:46:30;;;;;;;;;;;16.30;99.90;;;;;;5072960;28;19912;-70
2022/09/09 13:48:57;;;;;;;;;;;16.20;99.90;;;;;;5065081;28;19921;-70
2022/09/09 13:51:34;;;;;;;;;;;16.20;99.90;;;;;;5072572;28;19995;-71
2022/09/09 13:54:01;;;;;;;;;;;16.20;99.90;;;;;;5073144;28;19908;-71
2022/09/09 13:56:27;;;;;;;;;;;16.10;99.90;;;;;;5072879;28;19927;-70
2022/09/09 13:58:54;;;;;;;;;;;16.10;99.90;;;;;;5071396;28;19913;-72
2022/09/09 14:01:20;;;;;;;;;;;16.00;99.90;;;;;;5072554;28;20042;-73
2022/09/09 14:03:47;;;;;;;;;;;16.00;99.90;;;;;;5072169;28;20349;-70
2022/09/09 14:06:14;;;;;;;;;;;15.90;99.90;;;;;;5072685;28;19961;-71
2022/09/09 14:08:40;;;;;;;;;;;15.90;99.90;;;;;;5071805;28;20050;-71
2022/09/09 14:11:11;;;;;;;;;;;15.90;99.90;;;;;;5072230;28;20308;-71
2022/09/09 14:13:38;;;;;;;;;;;15.80;99.90;;;;;;5072401;28;19949;-69
2022/09/09 14:16:04;;;;;;;;;;;15.80;99.90;;;;;;5071921;28;19920;-72
2022/09/09 14:18:31;;;;;;;;;;;15.80;99.90;;;;;;5071689;28;20309;-70
2022/09/09 14:20:58;;;;;;;;;;;15.70;99.90;;;;;;5072366;28;19908;-69
2022/09/09 14:23:25;;;;;;;;;;;15.80;99.90;;;;;;5071839;28;19955;-69
2022/09/09 14:25:52;;;;;;;;;;;15.70;99.90;;;;;;5071529;28;19994;-69
2022/09/09 14:28:18;;;;;;;;;;;15.70;99.90;;;;;;5071648;28;19924;-70
2022/09/09 14:30:45;;;;;;;;;;;15.70;99.90;;;;;;5072334;28;20260;-69
2022/09/09 14:33:13;;;;;;;;;;;15.70;99.90;;;;;;5072353;28;19909;-70
2022/09/09 14:35:40;;;;;;;;;;;15.80;99.90;;;;;;5071851;28;19909;-68